createdAt,value
2023-04-21T00:01:13.001Z,10.75
2023-04-21T00:03:42.030Z,10.70
2023-04-21T00:06:10.579Z,10.45
2023-04-21T00:08:40.414Z,10.18
2023-04-21T00:11:08.765Z,9.88
2023-04-21T00:13:37.179Z,10.40
2023-04-21T00:16:07.506Z,9.77
2023-04-21T00:18:35.603Z,10.55
2023-04-21T00:21:03.785Z,10.33
2023-04-21T00:23:31.892Z,10.32
2023-04-21T00:26:02.794Z,9.67
2023-04-21T00:28:31.296Z,11.10
2023-04-21T00:30:59.397Z,10.85
2023-04-21T00:33:28.850Z,10.23
2023-04-21T00:35:59.141Z,10.07
2023-04-21T00:38:27.244Z,10.47
2023-04-21T00:40:56.126Z,10.33
2023-04-21T00:43:25.796Z,10.32
2023-04-21T00:45:53.925Z,9.95
2023-04-21T00:48:22.012Z,10.25
2023-04-21T00:50:51.462Z,9.93
2023-04-21T00:53:21.138Z,10.07
2023-04-21T00:55:49.295Z,9.93
2023-04-21T00:58:17.386Z,10.10
2023-04-21T01:00:45.545Z,9.45
2023-04-21T01:03:13.899Z,10.45
2023-04-21T01:05:42.571Z,11.23
2023-04-21T01:08:12.078Z,9.82
2023-04-21T01:10:40.150Z,10.90
2023-04-21T01:13:08.231Z,10.25
2023-04-21T01:15:36.294Z,11.07
2023-04-21T01:18:04.602Z,11.10
2023-04-21T01:20:32.895Z,11.32
2023-04-21T01:23:02.318Z,11.65
2023-04-21T01:25:30.432Z,11.27
2023-04-21T01:27:58.517Z,11.07
2023-04-21T01:30:26.790Z,11.17
2023-04-21T01:32:54.964Z,12.83
2023-04-21T01:35:23.086Z,11.37
2023-04-21T01:37:51.135Z,11.90
2023-04-21T01:40:20.705Z,11.43
2023-04-21T01:42:49.014Z,11.67
2023-04-21T01:45:17.057Z,12.03
2023-04-21T01:47:45.104Z,11.70
2023-04-21T01:50:13.316Z,12.00
2023-04-21T01:52:42.312Z,12.70
2023-04-21T01:55:11.104Z,12.00
2023-04-21T01:57:40.606Z,12.27
2023-04-21T02:00:10.047Z,12.13
2023-04-21T02:02:38.208Z,12.07
2023-04-21T02:05:07.272Z,11.50
2023-04-21T02:07:35.376Z,11.90
2023-04-21T02:10:04.227Z,12.27
2023-04-21T02:12:32.391Z,11.40
2023-04-21T02:15:01.961Z,11.27
2023-04-21T02:17:30.126Z,11.73
2023-04-21T02:19:58.233Z,12.00
2023-04-21T02:22:26.360Z,11.23
2023-04-21T02:24:54.451Z,11.13
2023-04-21T02:27:22.495Z,11.18
2023-04-21T02:29:50.572Z,10.97
2023-04-21T02:32:25.570Z,11.25
2023-04-21T02:34:54.354Z,11.70
2023-04-21T02:37:23.374Z,11.67
2023-04-21T02:39:51.423Z,10.52
2023-04-21T02:42:19.524Z,11.55
2023-04-21T02:44:47.632Z,11.10
2023-04-21T02:47:17.484Z,10.53
2023-04-21T02:49:46.922Z,11.83
2023-04-21T02:52:15.024Z,11.90
2023-04-21T02:54:43.118Z,12.13
2023-04-21T02:57:11.192Z,11.93
2023-04-21T02:59:39.193Z,12.02
2023-04-21T03:02:07.302Z,13.77
2023-04-21T03:04:35.512Z,11.67
2023-04-21T03:07:04.968Z,12.30
2023-04-21T03:09:33.029Z,12.00
2023-04-21T03:12:01.641Z,12.07
2023-04-21T03:14:29.749Z,12.70
2023-04-21T03:16:57.917Z,12.80
2023-04-21T03:19:26.090Z,13.25
2023-04-21T03:21:54.186Z,13.87
2023-04-21T03:24:23.639Z,14.10
2023-04-21T03:26:51.701Z,14.17
2023-04-21T03:29:20.112Z,13.07
2023-04-21T03:31:48.301Z,13.27
2023-04-21T03:34:16.862Z,14.00
2023-04-21T03:36:45.032Z,12.47
2023-04-21T03:39:20.493Z,13.13
2023-04-21T03:41:50.257Z,13.17
2023-04-21T03:44:18.314Z,12.37
2023-04-21T03:46:46.343Z,13.43
2023-04-21T03:49:14.388Z,12.50
2023-04-21T03:51:42.490Z,13.23
2023-04-21T03:54:10.547Z,13.73
2023-04-21T03:56:38.628Z,13.67
2023-04-21T03:59:08.089Z,14.03
2023-04-21T04:01:36.398Z,12.57
2023-04-21T04:04:04.822Z,15.47
2023-04-21T04:06:33.326Z,13.85
2023-04-21T04:09:02.749Z,13.73
2023-04-21T04:11:30.837Z,14.23
2023-04-21T04:13:58.897Z,13.57
2023-04-21T04:16:29.349Z,12.97
2023-04-21T04:18:57.653Z,12.53
2023-04-21T04:21:25.736Z,12.88
2023-04-21T04:23:53.812Z,13.48
2023-04-21T04:26:22.734Z,12.80
2023-04-21T04:28:50.966Z,13.07
2023-04-21T04:31:19.538Z,13.70
2023-04-21T04:33:49.049Z,12.67
2023-04-21T04:36:17.134Z,13.80
2023-04-21T04:38:45.979Z,13.63
2023-04-21T04:41:15.893Z,13.57
2023-04-21T04:43:44.556Z,14.00
2023-04-21T04:46:13.142Z,14.00
2023-04-21T04:48:42.268Z,13.27
2023-04-21T04:51:11.675Z,12.40
2023-04-21T04:53:40.186Z,14.27
2023-04-21T04:56:08.348Z,17.23
2023-04-21T04:58:36.891Z,29.97
2023-04-21T05:01:14.087Z,27.77
2023-04-21T05:03:43.108Z,30.75
2023-04-21T05:06:14.551Z,30.57
2023-04-21T05:08:42.625Z,33.63
2023-04-21T05:11:11.154Z,31.95
2023-04-21T05:13:40.181Z,25.02
2023-04-21T05:16:10.582Z,21.87
2023-04-21T05:18:38.945Z,20.40
2023-04-21T05:21:07.712Z,21.10
2023-04-21T05:23:37.594Z,19.57
2023-04-21T05:26:05.697Z,19.83
2023-04-21T05:28:34.208Z,20.87
2023-04-21T05:31:02.235Z,23.43
2023-04-21T05:33:32.238Z,23.60
2023-04-21T05:36:00.347Z,21.63
2023-04-21T05:38:28.929Z,26.37
2023-04-21T05:40:58.860Z,25.85
2023-04-21T05:43:26.925Z,22.70
2023-04-21T05:45:55.527Z,20.38
2023-04-21T05:48:24.523Z,16.60
2023-04-21T05:50:53.172Z,16.77
2023-04-21T05:53:21.227Z,16.60
2023-04-21T05:55:49.295Z,14.35
2023-04-21T05:58:19.236Z,15.20
2023-04-21T06:00:49.242Z,14.68
2023-04-21T06:03:17.602Z,14.57
2023-04-21T06:05:46.355Z,14.27
2023-04-21T06:08:14.584Z,15.02
2023-04-21T06:10:43.184Z,16.05
2023-04-21T06:13:11.207Z,14.35
2023-04-21T06:15:41.090Z,14.27
2023-04-21T06:18:09.197Z,13.68
2023-04-21T06:20:37.386Z,15.70
2023-04-21T06:23:05.896Z,14.38
2023-04-21T06:25:34.113Z,14.07
2023-04-21T06:28:02.666Z,14.98
2023-04-21T06:30:30.732Z,14.90
2023-04-21T06:33:00.197Z,14.52
2023-04-21T06:35:28.304Z,13.88
2023-04-21T06:37:56.815Z,13.98
2023-04-21T06:40:24.886Z,13.02
2023-04-21T06:42:53.409Z,12.98
2023-04-21T06:45:21.624Z,12.63
2023-04-21T06:47:49.725Z,13.50
2023-04-21T06:50:19.363Z,14.15
2023-04-21T06:52:47.893Z,13.38
2023-04-21T06:55:15.977Z,13.20
2023-04-21T06:57:44.508Z,13.82
2023-04-21T07:00:14.338Z,13.55
2023-04-21T07:02:42.817Z,11.90
2023-04-21T07:05:11.649Z,14.18
2023-04-21T07:07:41.444Z,13.90
2023-04-21T07:10:11.076Z,12.23
2023-04-21T07:12:39.240Z,13.52
2023-04-21T07:15:08.887Z,13.30
2023-04-21T07:17:36.972Z,12.48
2023-04-21T07:20:05.668Z,12.48
2023-04-21T07:22:34.659Z,12.43
2023-04-21T07:25:06.297Z,12.70
2023-04-21T07:27:35.867Z,12.80
2023-04-21T07:30:04.075Z,13.70
2023-04-21T07:32:32.515Z,12.98
2023-04-21T07:35:02.028Z,13.30
2023-04-21T07:37:30.203Z,12.50
2023-04-21T07:39:58.269Z,13.77
2023-04-21T07:42:27.779Z,14.48
2023-04-21T07:44:57.472Z,12.20
2023-04-21T07:47:25.603Z,12.52
2023-04-21T07:49:53.787Z,12.32
2023-04-21T07:52:21.853Z,13.07
2023-04-21T07:54:50.675Z,12.73
2023-04-21T07:57:18.947Z,12.35
2023-04-21T07:59:48.427Z,12.45
2023-04-21T08:02:16.610Z,12.07
2023-04-21T08:04:44.905Z,11.68
2023-04-21T08:07:13.928Z,12.23
2023-04-21T08:09:42.136Z,12.30
2023-04-21T08:12:10.197Z,10.50
2023-04-21T08:14:38.276Z,10.80
2023-04-21T08:17:07.906Z,10.90
2023-04-21T08:19:35.941Z,11.23
2023-04-21T08:22:04.052Z,10.43
2023-04-21T08:24:32.084Z,11.05
2023-04-21T08:27:02.248Z,9.88
2023-04-21T08:29:30.666Z,10.60
2023-04-21T08:31:58.826Z,10.52
2023-04-21T08:34:28.558Z,9.73
2023-04-21T08:36:56.912Z,9.00
2023-04-21T08:39:25.082Z,10.40
2023-04-21T08:41:53.711Z,10.32
2023-04-21T08:44:22.448Z,9.23
2023-04-21T08:46:51.477Z,9.38
2023-04-21T08:49:22.056Z,9.45
2023-04-21T08:51:51.682Z,9.85
2023-04-21T08:54:19.776Z,9.50
2023-04-21T08:56:49.332Z,9.07
2023-04-21T08:59:17.624Z,9.30
2023-04-21T09:02:08.156Z,8.82
2023-04-21T09:04:36.756Z,9.25
2023-04-21T09:07:06.322Z,9.63
2023-04-21T09:09:34.380Z,9.00
2023-04-21T09:12:02.949Z,8.93
2023-04-21T09:14:33.823Z,8.98
2023-04-21T09:17:04.062Z,8.98
2023-04-21T09:19:35.399Z,9.07
2023-04-21T09:22:03.640Z,9.02
2023-04-21T09:24:33.081Z,8.57
2023-04-21T09:27:04.811Z,8.68
2023-04-21T09:29:33.008Z,8.05
2023-04-21T09:32:03.147Z,8.48
2023-04-21T09:34:32.034Z,8.27
2023-04-21T09:37:03.805Z,7.93
2023-04-21T09:39:46.398Z,7.43
2023-04-21T09:42:21.062Z,6.82
2023-04-21T09:44:53.856Z,6.32
2023-04-21T09:47:30.526Z,5.97
2023-04-21T09:49:59.667Z,5.82
2023-04-21T09:52:30.116Z,5.65
2023-04-21T09:55:04.296Z,5.65
2023-04-21T09:57:33.467Z,5.63
2023-04-21T10:00:05.240Z,5.60
2023-04-21T10:02:35.580Z,5.38
2023-04-21T10:05:05.435Z,5.93
2023-04-21T10:07:33.631Z,5.72
2023-04-21T10:10:04.496Z,5.75
2023-04-21T10:12:34.418Z,5.60
2023-04-21T10:15:06.517Z,5.88
2023-04-21T10:17:37.956Z,6.40
2023-04-21T10:20:09.767Z,5.75
2023-04-21T10:22:39.712Z,5.90
2023-04-21T10:25:10.573Z,5.68
2023-04-21T10:27:40.920Z,5.40
2023-04-21T10:30:22.537Z,5.60
2023-04-21T10:33:02.917Z,5.78
2023-04-21T10:36:09.765Z,5.80
2023-04-21T10:38:42.334Z,6.07
2023-04-21T10:41:28.154Z,5.90
2023-04-21T10:43:59.330Z,5.55
2023-04-21T10:46:34.615Z,5.90
2023-04-21T10:49:10.205Z,5.55
2023-04-21T10:52:07.196Z,6.00
2023-04-21T10:54:45.943Z,5.60
2023-04-21T10:57:17.787Z,5.70
2023-04-21T10:59:46.677Z,5.97
2023-04-21T11:02:17.052Z,5.47
2023-04-21T11:04:48.798Z,5.72
2023-04-21T11:07:19.501Z,4.72
2023-04-21T11:09:48.903Z,5.15
2023-04-21T11:12:19.684Z,5.32
2023-04-21T11:14:48.956Z,4.63
2023-04-21T11:17:18.094Z,5.38
2023-04-21T11:19:47.134Z,5.10
2023-04-21T11:22:15.236Z,4.75
2023-04-21T11:24:46.233Z,4.80
2023-04-21T11:27:15.290Z,4.68
2023-04-21T11:29:46.155Z,3.67
2023-04-21T11:32:15.183Z,4.32
2023-04-21T11:34:43.835Z,2.80
2023-04-21T11:37:16.378Z,3.40
2023-04-21T11:39:45.022Z,2.88
2023-04-21T11:42:13.309Z,3.25
2023-04-21T11:44:42.774Z,3.60
2023-04-21T11:47:16.484Z,3.50
2023-04-21T11:49:49.596Z,2.95
2023-04-21T11:52:28.013Z,3.38
2023-04-21T11:54:59.326Z,3.15
2023-04-21T11:57:29.036Z,3.15
2023-04-21T12:00:00.846Z,2.75
2023-04-21T12:02:32.059Z,2.90
2023-04-21T12:05:02.245Z,3.33
2023-04-21T12:07:34.260Z,2.75
2023-04-21T12:10:03.834Z,2.92
2023-04-21T12:12:35.351Z,2.80
2023-04-21T12:15:04.891Z,2.70
2023-04-21T12:17:39.713Z,3.05
2023-04-21T12:20:09.793Z,3.28
2023-04-21T12:22:37.997Z,2.90
2023-04-21T12:25:07.198Z,3.00
2023-04-21T12:27:35.357Z,3.35
2023-04-21T12:30:04.151Z,3.78
2023-04-21T12:32:32.323Z,3.55
2023-04-21T12:35:02.357Z,3.30
2023-04-21T12:37:30.484Z,2.80
2023-04-21T12:39:58.553Z,3.00
2023-04-21T12:42:26.729Z,3.25
2023-04-21T12:44:54.801Z,3.65
2023-04-21T12:47:22.902Z,3.15
2023-04-21T12:49:50.987Z,2.17
2023-04-21T12:52:20.440Z,2.22
2023-04-21T12:54:48.498Z,2.47
2023-04-21T12:57:16.929Z,1.90
2023-04-21T12:59:46.535Z,1.70
2023-04-21T13:02:17.918Z,1.85
2023-04-21T13:04:46.068Z,1.75
2023-04-21T13:07:16.136Z,1.75
2023-04-21T13:09:46.451Z,2.05
2023-04-21T13:12:14.527Z,1.73
2023-04-21T13:14:42.570Z,1.63
2023-04-21T13:17:11.368Z,1.55
2023-04-21T13:19:39.479Z,1.60
2023-04-21T13:22:07.638Z,1.67
2023-04-21T13:24:35.840Z,1.88
2023-04-21T13:27:05.558Z,1.80
2023-04-21T13:29:34.874Z,1.80
2023-04-21T13:32:03.120Z,1.65
2023-04-21T13:34:31.606Z,1.58
2023-04-21T13:36:59.932Z,1.67
2023-04-21T13:39:28.091Z,1.90
2023-04-21T13:41:56.740Z,1.45
2023-04-21T13:44:26.221Z,1.50
2023-04-21T13:46:54.386Z,1.90
2023-04-21T13:49:22.505Z,1.33
2023-04-21T13:51:50.612Z,1.38
2023-04-21T13:54:18.693Z,1.35
2023-04-21T13:56:46.781Z,1.70
2023-04-21T13:59:16.594Z,1.50
2023-04-21T14:01:46.098Z,1.50
2023-04-21T14:04:14.471Z,1.58
2023-04-21T14:06:42.720Z,1.20
2023-04-21T14:09:11.922Z,1.40
2023-04-21T14:11:39.988Z,1.40
2023-04-21T14:14:10.146Z,1.30
2023-04-21T14:16:39.099Z,1.30
2023-04-21T14:19:10.282Z,1.48
2023-04-21T14:21:38.369Z,1.40
2023-04-21T14:24:06.446Z,1.58
2023-04-21T14:26:34.517Z,0.93
2023-04-21T14:29:02.777Z,1.45
2023-04-21T14:31:30.920Z,1.30
2023-04-21T14:33:59.126Z,1.40
2023-04-21T14:36:28.678Z,1.40
2023-04-21T14:38:57.085Z,1.45
2023-04-21T14:41:25.185Z,1.20
2023-04-21T14:43:56.523Z,1.48
2023-04-21T14:46:25.001Z,1.20
2023-04-21T14:48:53.307Z,1.45
2023-04-21T14:51:21.785Z,1.30
2023-04-21T14:53:51.332Z,1.20
2023-04-21T14:56:19.871Z,1.20
2023-04-21T14:58:47.996Z,1.08
2023-04-21T15:01:16.256Z,1.30
2023-04-21T15:03:44.709Z,1.33
2023-04-21T15:06:12.933Z,1.10
2023-04-21T15:08:41.161Z,1.10
2023-04-21T15:11:10.705Z,1.10
2023-04-21T15:13:39.224Z,1.00
2023-04-21T15:16:07.815Z,1.30
2023-04-21T15:18:36.470Z,1.10
2023-04-21T15:21:05.232Z,1.10
2023-04-21T15:23:33.799Z,1.15
2023-04-21T15:26:02.430Z,1.25
2023-04-21T15:28:32.639Z,1.40
2023-04-21T15:31:00.761Z,0.93
2023-04-21T15:33:29.560Z,1.10
2023-04-21T15:35:57.604Z,1.20
2023-04-21T15:38:26.204Z,1.25
2023-04-21T15:43:27.916Z,1.13
2023-04-21T15:45:57.404Z,1.10
2023-04-21T15:48:26.099Z,1.40
2023-04-21T15:50:54.276Z,1.48
2023-04-21T15:53:22.355Z,1.50
2023-04-21T15:55:52.316Z,1.42
2023-04-21T15:58:22.261Z,1.50
2023-04-21T16:00:50.536Z,1.60
2023-04-21T16:03:20.288Z,1.23
2023-04-21T16:05:49.020Z,1.25
2023-04-21T16:08:17.688Z,1.50
2023-04-21T16:10:46.103Z,1.40
2023-04-21T16:13:14.689Z,1.42
2023-04-21T16:15:42.852Z,1.45
2023-04-21T16:18:11.778Z,1.48
2023-04-21T16:20:42.207Z,1.58
2023-04-21T16:23:10.680Z,1.50
2023-04-21T16:25:39.294Z,1.42
2023-04-21T16:28:07.926Z,1.80
2023-04-21T16:30:36.186Z,1.55
2023-04-21T16:33:04.802Z,1.50
2023-04-21T16:35:33.048Z,1.60
2023-04-21T16:38:03.054Z,1.73
2023-04-21T16:40:31.575Z,1.75
2023-04-21T16:42:59.779Z,1.50
2023-04-21T16:45:29.731Z,1.48
2023-04-21T16:47:58.273Z,1.50
2023-04-21T16:50:27.332Z,1.48
2023-04-21T16:52:55.509Z,1.65
2023-04-21T16:55:25.031Z,1.40
2023-04-21T16:57:53.670Z,1.38
2023-04-21T17:00:21.933Z,2.00
2023-04-21T17:02:50.554Z,1.27
2023-04-21T17:05:19.387Z,1.85
2023-04-21T17:07:48.148Z,1.58
2023-04-21T17:10:16.913Z,1.48
2023-04-21T17:12:46.408Z,1.38
2023-04-21T17:15:14.558Z,1.45
2023-04-21T17:17:44.832Z,1.38
2023-04-21T17:20:14.655Z,1.50
2023-04-21T17:22:43.252Z,1.27
2023-04-21T17:25:12.110Z,1.20
2023-04-21T17:27:40.885Z,1.73
2023-04-21T17:30:11.620Z,1.20
2023-04-21T17:32:41.324Z,1.20
2023-04-21T17:35:10.302Z,1.50
2023-04-21T17:37:38.661Z,1.33
2023-04-21T17:40:10.001Z,1.30
2023-04-21T17:42:38.147Z,1.30
2023-04-21T17:45:09.095Z,1.58
2023-04-21T17:47:38.584Z,1.30
2023-04-21T17:50:09.367Z,2.00
2023-04-21T17:52:37.428Z,2.22
2023-04-21T17:55:06.206Z,2.17
2023-04-21T17:57:34.288Z,1.58
2023-04-21T18:00:04.530Z,1.60
2023-04-21T18:02:32.723Z,1.58
2023-04-21T18:05:02.580Z,1.70
2023-04-21T18:07:30.942Z,1.80
2023-04-21T18:09:59.224Z,1.83
2023-04-21T18:12:27.352Z,1.85
2023-04-21T18:14:55.441Z,1.90
2023-04-21T18:17:24.215Z,2.42
2023-04-21T18:19:52.422Z,2.17
2023-04-21T18:22:22.308Z,2.15
2023-04-21T18:24:50.431Z,1.77
2023-04-21T18:27:18.444Z,1.73
2023-04-21T18:29:46.546Z,2.20
2023-04-21T18:32:14.625Z,2.00
2023-04-21T18:34:42.710Z,1.70
2023-04-21T18:37:10.858Z,2.40
2023-04-21T18:39:40.817Z,2.20
2023-04-21T18:42:08.948Z,2.33
2023-04-21T18:44:37.308Z,1.92
2023-04-21T18:47:05.819Z,1.70
2023-04-21T18:49:33.986Z,2.70
2023-04-21T18:52:02.190Z,2.22
2023-04-21T18:54:30.260Z,2.00
2023-04-21T18:56:59.752Z,2.05
2023-04-21T18:59:27.805Z,1.75
2023-04-21T19:01:56.015Z,2.15
2023-04-21T19:04:24.221Z,2.17
2023-04-21T19:06:52.378Z,2.17
2023-04-21T19:09:20.472Z,2.33
2023-04-21T19:11:48.679Z,2.10
2023-04-21T19:14:18.161Z,2.20
2023-04-21T19:16:47.535Z,2.17
2023-04-21T19:19:15.643Z,2.15
2023-04-21T19:21:43.704Z,2.10
2023-04-21T19:24:12.074Z,2.00
2023-04-21T19:26:40.278Z,2.28
2023-04-21T19:29:11.650Z,2.15
2023-04-21T19:31:41.587Z,2.13
2023-04-21T19:34:09.632Z,2.35
2023-04-21T19:36:38.019Z,2.60
2023-04-21T19:39:07.401Z,2.25
2023-04-21T19:41:38.849Z,2.55
2023-04-21T19:44:06.898Z,2.60
2023-04-21T19:46:35.118Z,2.50
2023-04-21T19:49:04.669Z,3.15
2023-04-21T19:51:32.766Z,3.00
2023-04-21T19:54:10.722Z,2.33
2023-04-21T19:56:39.920Z,2.20
2023-04-21T19:59:08.286Z,2.55
2023-04-21T20:01:36.620Z,2.40
2023-04-21T20:04:06.848Z,2.47
2023-04-21T20:06:35.519Z,2.55
2023-04-21T20:09:05.849Z,2.78
2023-04-21T20:11:34.096Z,2.90
2023-04-21T20:14:02.256Z,2.35
2023-04-21T20:16:30.619Z,2.33
2023-04-21T20:18:58.985Z,2.70
2023-04-21T20:21:28.871Z,2.42
2023-04-21T20:23:57.089Z,2.50
2023-04-21T20:26:25.184Z,2.25
2023-04-21T20:28:56.289Z,2.22
2023-04-21T20:31:25.553Z,2.08
2023-04-21T20:33:53.848Z,2.20
2023-04-21T20:36:22.067Z,2.05
2023-04-21T20:38:52.031Z,2.20
2023-04-21T20:41:23.804Z,2.35
2023-04-21T20:43:52.084Z,2.35
2023-04-21T20:46:20.635Z,2.40
2023-04-21T20:48:48.689Z,2.28
2023-04-21T20:51:17.225Z,2.50
2023-04-21T20:53:45.267Z,2.60
2023-04-21T20:56:15.191Z,2.60
2023-04-21T20:58:43.210Z,2.47
2023-04-21T21:01:11.370Z,2.40
2023-04-21T21:03:39.662Z,2.40
2023-04-21T21:06:08.436Z,2.63
2023-04-21T21:08:37.025Z,2.40
2023-04-21T21:11:05.707Z,2.30
2023-04-21T21:13:35.184Z,2.28
2023-04-21T21:16:03.912Z,2.25
2023-04-21T21:18:34.563Z,2.70
2023-04-21T21:21:03.179Z,2.45
2023-04-21T21:23:32.807Z,2.60
2023-04-21T21:26:01.514Z,2.60
2023-04-21T21:28:30.405Z,2.53
2023-04-21T21:30:59.884Z,3.90
2023-04-21T21:33:27.993Z,3.00
2023-04-21T21:35:56.074Z,2.80
2023-04-21T21:38:24.656Z,2.60
2023-04-21T21:40:53.209Z,2.85
2023-04-21T21:43:21.303Z,2.95
2023-04-21T21:45:49.949Z,3.10
2023-04-21T21:48:19.954Z,2.67
2023-04-21T21:50:48.489Z,2.63
2023-04-21T21:53:16.535Z,3.05
2023-04-21T21:55:45.104Z,2.50
2023-04-21T21:58:13.649Z,2.60
2023-04-21T22:00:42.992Z,2.78
2023-04-21T22:03:12.081Z,2.70
2023-04-21T22:05:41.668Z,2.70
2023-04-21T22:08:10.215Z,2.70
2023-04-21T22:10:38.731Z,2.72
2023-04-21T22:13:07.272Z,2.53
2023-04-21T22:15:37.097Z,2.50
2023-04-21T22:18:07.146Z,2.60
2023-04-21T22:20:36.130Z,3.42
2023-04-21T22:23:06.674Z,2.78
2023-04-21T22:25:34.739Z,2.70
2023-04-21T22:28:03.325Z,3.13
2023-04-21T22:30:31.727Z,2.88
2023-04-21T22:33:00.441Z,2.90
2023-04-21T22:35:28.499Z,2.88
2023-04-21T22:37:57.062Z,3.45
2023-04-21T22:40:27.047Z,2.90
2023-04-21T22:42:55.144Z,3.25
2023-04-21T22:45:23.286Z,3.40
2023-04-21T22:47:51.431Z,2.80
2023-04-21T22:50:20.530Z,3.00
2023-04-21T22:52:49.047Z,3.10
2023-04-21T22:55:17.250Z,2.95
2023-04-21T22:57:46.755Z,2.70
2023-04-21T23:00:16.069Z,3.22
2023-04-21T23:02:44.178Z,2.97
2023-04-21T23:05:12.893Z,2.88
2023-04-21T23:07:41.453Z,2.92
2023-04-21T23:10:10.407Z,2.97
2023-04-21T23:12:39.037Z,2.80
2023-04-21T23:15:09.816Z,3.20
2023-04-21T23:17:38.390Z,2.88
2023-04-21T23:20:08.851Z,3.00
2023-04-21T23:22:37.477Z,3.40
2023-04-21T23:25:06.233Z,3.13
2023-04-21T23:27:34.786Z,2.90
2023-04-21T23:30:02.931Z,3.10
2023-04-21T23:32:32.867Z,3.15
2023-04-21T23:35:01.512Z,2.58
2023-04-21T23:37:29.557Z,2.90
2023-04-21T23:39:58.146Z,2.85
2023-04-21T23:42:26.736Z,2.90
2023-04-21T23:44:54.904Z,3.17
2023-04-21T23:47:23.468Z,2.78
2023-04-21T23:49:52.861Z,2.83
2023-04-21T23:52:21.404Z,2.90
2023-04-21T23:54:49.496Z,3.05
2023-04-21T23:57:17.530Z,2.65
2023-04-21T23:59:45.906Z,3.15
